sensor_id;sensor_type;location;lat;lon;timestamp;temperature;humidity
50955;DHT22;36966;48.064;-0.792;2022-10-16T00:00:57;20.20;60.20
50955;DHT22;36966;48.064;-0.792;2022-10-16T00:03:17;20.20;60.20
50955;DHT22;36966;48.064;-0.792;2022-10-16T00:05:43;20.10;60.20
50955;DHT22;36966;48.064;-0.792;2022-10-16T00:08:03;20.20;60.20
50955;DHT22;36966;48.064;-0.792;2022-10-16T00:10:23;20.20;60.20
50955;DHT22;36966;48.064;-0.792;2022-10-16T00:12:43;20.10;60.30
50955;DHT22;36966;48.064;-0.792;2022-10-16T00:15:02;20.20;60.30
50955;DHT22;36966;48.064;-0.792;2022-10-16T00:17:21;20.20;60.30
50955;DHT22;36966;48.064;-0.792;2022-10-16T00:19:40;20.10;60.30
50955;DHT22;36966;48.064;-0.792;2022-10-16T00:21:59;20.20;60.40
50955;DHT22;36966;48.064;-0.792;2022-10-16T00:24:18;20.20;60.40
50955;DHT22;36966;48.064;-0.792;2022-10-16T00:26:38;20.20;60.40
50955;DHT22;36966;48.064;-0.792;2022-10-16T00:28:58;20.20;60.40
50955;DHT22;36966;48.064;-0.792;2022-10-16T00:31:20;20.20;60.40
50955;DHT22;36966;48.064;-0.792;2022-10-16T00:33:40;20.20;60.50
50955;DHT22;36966;48.064;-0.792;2022-10-16T00:36:01;20.10;60.50
50955;DHT22;36966;48.064;-0.792;2022-10-16T00:38:21;20.10;60.50
50955;DHT22;36966;48.064;-0.792;2022-10-16T00:40:40;20.10;60.60
50955;DHT22;36966;48.064;-0.792;2022-10-16T00:42:59;20.10;60.50
50955;DHT22;36966;48.064;-0.792;2022-10-16T00:45:19;20.10;60.60
50955;DHT22;36966;48.064;-0.792;2022-10-16T00:47:43;20.10;60.50
50955;DHT22;36966;48.064;-0.792;2022-10-16T00:50:29;20.10;60.60
50955;DHT22;36966;48.064;-0.792;2022-10-16T00:52:50;20.10;60.70
50955;DHT22;36966;48.064;-0.792;2022-10-16T00:55:10;20.10;60.70
50955;DHT22;36966;48.064;-0.792;2022-10-16T00:57:29;20.10;60.60
50955;DHT22;36966;48.064;-0.792;2022-10-16T00:59:48;20.10;60.70
50955;DHT22;36966;48.064;-0.792;2022-10-16T01:02:13;20.10;60.70
50955;DHT22;36966;48.064;-0.792;2022-10-16T01:04:39;20.10;60.70
50955;DHT22;36966;48.064;-0.792;2022-10-16T01:12:01;20.10;60.80
50955;DHT22;36966;48.064;-0.792;2022-10-16T01:17:04;20.10;60.80
50955;DHT22;36966;48.064;-0.792;2022-10-16T01:19:41;20.10;60.90
50955;DHT22;36966;48.064;-0.792;2022-10-16T01:22:04;20.10;60.80
50955;DHT22;36966;48.064;-0.792;2022-10-16T01:24:41;20.10;60.80
50955;DHT22;36966;48.064;-0.792;2022-10-16T01:27:18;20.10;60.90
50955;DHT22;36966;48.064;-0.792;2022-10-16T01:29:40;20.10;60.90
50955;DHT22;36966;48.064;-0.792;2022-10-16T01:32:09;20.10;60.90
50955;DHT22;36966;48.064;-0.792;2022-10-16T01:34:35;20.10;61.00
50955;DHT22;36966;48.064;-0.792;2022-10-16T01:37:09;20.10;61.00
50955;DHT22;36966;48.064;-0.792;2022-10-16T01:39:32;20.00;61.00
50955;DHT22;36966;48.064;-0.792;2022-10-16T01:41:59;20.00;61.00
50955;DHT22;36966;48.064;-0.792;2022-10-16T01:44:24;20.10;61.00
50955;DHT22;36966;48.064;-0.792;2022-10-16T01:46:47;20.00;61.00
50955;DHT22;36966;48.064;-0.792;2022-10-16T01:49:09;20.00;61.10
50955;DHT22;36966;48.064;-0.792;2022-10-16T01:51:29;20.00;61.00
50955;DHT22;36966;48.064;-0.792;2022-10-16T01:53:55;20.10;61.10
50955;DHT22;36966;48.064;-0.792;2022-10-16T01:56:17;20.10;61.10
50955;DHT22;36966;48.064;-0.792;2022-10-16T01:58:54;20.10;61.10
50955;DHT22;36966;48.064;-0.792;2022-10-16T02:01:17;20.00;61.10
50955;DHT22;36966;48.064;-0.792;2022-10-16T02:03:38;20.00;61.10
50955;DHT22;36966;48.064;-0.792;2022-10-16T02:06:00;20.00;61.10
50955;DHT22;36966;48.064;-0.792;2022-10-16T02:08:21;20.00;61.10
50955;DHT22;36966;48.064;-0.792;2022-10-16T02:10:42;20.00;61.20
50955;DHT22;36966;48.064;-0.792;2022-10-16T02:13:17;20.00;61.20
50955;DHT22;36966;48.064;-0.792;2022-10-16T02:15:37;20.00;61.20
50955;DHT22;36966;48.064;-0.792;2022-10-16T02:17:56;20.00;61.20
50955;DHT22;36966;48.064;-0.792;2022-10-16T02:20:16;20.00;61.20
50955;DHT22;36966;48.064;-0.792;2022-10-16T02:22:43;20.00;61.20
50955;DHT22;36966;48.064;-0.792;2022-10-16T02:25:29;20.00;61.20
50955;DHT22;36966;48.064;-0.792;2022-10-16T02:28:01;20.00;61.20
50955;DHT22;36966;48.064;-0.792;2022-10-16T02:30:39;20.00;61.20
50955;DHT22;36966;48.064;-0.792;2022-10-16T02:33:01;20.00;61.30
50955;DHT22;36966;48.064;-0.792;2022-10-16T02:35:22;20.00;61.30
50955;DHT22;36966;48.064;-0.792;2022-10-16T02:37:42;20.00;61.30
50955;DHT22;36966;48.064;-0.792;2022-10-16T02:40:02;20.00;61.30
50955;DHT22;36966;48.064;-0.792;2022-10-16T02:42:29;20.00;61.30
50955;DHT22;36966;48.064;-0.792;2022-10-16T02:44:51;20.00;61.30
50955;DHT22;36966;48.064;-0.792;2022-10-16T02:47:10;20.00;61.30
50955;DHT22;36966;48.064;-0.792;2022-10-16T02:49:31;20.00;61.30
50955;DHT22;36966;48.064;-0.792;2022-10-16T02:51:50;20.00;61.40
50955;DHT22;36966;48.064;-0.792;2022-10-16T02:54:09;20.00;61.30
50955;DHT22;36966;48.064;-0.792;2022-10-16T02:56:28;20.00;61.40
50955;DHT22;36966;48.064;-0.792;2022-10-16T02:58:49;20.00;61.40
50955;DHT22;36966;48.064;-0.792;2022-10-16T03:01:08;20.00;61.40
50955;DHT22;36966;48.064;-0.792;2022-10-16T03:03:27;20.00;61.40
50955;DHT22;36966;48.064;-0.792;2022-10-16T03:05:46;20.00;61.40
50955;DHT22;36966;48.064;-0.792;2022-10-16T03:08:05;20.00;61.40
50955;DHT22;36966;48.064;-0.792;2022-10-16T03:10:24;20.00;61.40
50955;DHT22;36966;48.064;-0.792;2022-10-16T03:12:44;20.00;61.40
50955;DHT22;36966;48.064;-0.792;2022-10-16T03:15:04;20.00;61.50
50955;DHT22;36966;48.064;-0.792;2022-10-16T03:17:24;20.00;61.40
50955;DHT22;36966;48.064;-0.792;2022-10-16T03:19:44;20.00;61.50
50955;DHT22;36966;48.064;-0.792;2022-10-16T03:22:04;20.00;61.50
50955;DHT22;36966;48.064;-0.792;2022-10-16T03:24:23;20.00;61.40
50955;DHT22;36966;48.064;-0.792;2022-10-16T03:26:42;20.00;61.50
50955;DHT22;36966;48.064;-0.792;2022-10-16T03:29:02;20.00;61.50
50955;DHT22;36966;48.064;-0.792;2022-10-16T03:31:22;20.00;61.50
50955;DHT22;36966;48.064;-0.792;2022-10-16T03:33:41;20.00;61.50
50955;DHT22;36966;48.064;-0.792;2022-10-16T03:36:00;20.00;61.50
50955;DHT22;36966;48.064;-0.792;2022-10-16T03:38:19;20.00;61.50
50955;DHT22;36966;48.064;-0.792;2022-10-16T03:40:39;20.00;61.50
50955;DHT22;36966;48.064;-0.792;2022-10-16T03:42:58;20.00;61.50
50955;DHT22;36966;48.064;-0.792;2022-10-16T03:45:18;20.00;61.50
50955;DHT22;36966;48.064;-0.792;2022-10-16T03:47:37;20.00;61.60
50955;DHT22;36966;48.064;-0.792;2022-10-16T03:49:56;20.00;61.60
50955;DHT22;36966;48.064;-0.792;2022-10-16T03:52:16;20.00;61.60
50955;DHT22;36966;48.064;-0.792;2022-10-16T03:54:35;19.90;61.60
50955;DHT22;36966;48.064;-0.792;2022-10-16T03:56:54;19.90;61.60
50955;DHT22;36966;48.064;-0.792;2022-10-16T03:59:13;19.90;61.60
50955;DHT22;36966;48.064;-0.792;2022-10-16T04:01:33;20.00;61.60
50955;DHT22;36966;48.064;-0.792;2022-10-16T04:03:52;20.00;61.70
50955;DHT22;36966;48.064;-0.792;2022-10-16T04:06:11;20.00;61.60
50955;DHT22;36966;48.064;-0.792;2022-10-16T04:08:30;20.00;61.60
50955;DHT22;36966;48.064;-0.792;2022-10-16T04:10:50;20.00;61.60
50955;DHT22;36966;48.064;-0.792;2022-10-16T04:13:09;20.00;61.60
50955;DHT22;36966;48.064;-0.792;2022-10-16T04:15:28;20.00;61.60
50955;DHT22;36966;48.064;-0.792;2022-10-16T04:17:48;20.00;61.60
50955;DHT22;36966;48.064;-0.792;2022-10-16T04:20:07;20.00;61.60
50955;DHT22;36966;48.064;-0.792;2022-10-16T04:22:27;20.00;61.60
50955;DHT22;36966;48.064;-0.792;2022-10-16T04:24:46;20.10;61.60
50955;DHT22;36966;48.064;-0.792;2022-10-16T04:27:05;20.10;61.60
50955;DHT22;36966;48.064;-0.792;2022-10-16T04:29:24;20.10;61.60
50955;DHT22;36966;48.064;-0.792;2022-10-16T04:31:44;20.10;61.60
50955;DHT22;36966;48.064;-0.792;2022-10-16T04:34:02;20.10;61.50
50955;DHT22;36966;48.064;-0.792;2022-10-16T04:36:22;20.10;61.50
50955;DHT22;36966;48.064;-0.792;2022-10-16T04:38:41;20.10;61.50
50955;DHT22;36966;48.064;-0.792;2022-10-16T04:41:00;20.10;61.50
50955;DHT22;36966;48.064;-0.792;2022-10-16T04:43:19;20.20;61.50
50955;DHT22;36966;48.064;-0.792;2022-10-16T04:45:39;20.20;61.50
50955;DHT22;36966;48.064;-0.792;2022-10-16T04:47:59;20.10;61.50
50955;DHT22;36966;48.064;-0.792;2022-10-16T04:50:18;20.20;61.50
50955;DHT22;36966;48.064;-0.792;2022-10-16T04:52:37;20.20;61.50
50955;DHT22;36966;48.064;-0.792;2022-10-16T04:54:56;20.20;61.50
50955;DHT22;36966;48.064;-0.792;2022-10-16T04:57:19;20.20;61.40
50955;DHT22;36966;48.064;-0.792;2022-10-16T04:59:38;20.20;61.50
50955;DHT22;36966;48.064;-0.792;2022-10-16T05:01:57;20.20;61.40
50955;DHT22;36966;48.064;-0.792;2022-10-16T05:04:16;20.20;61.40
50955;DHT22;36966;48.064;-0.792;2022-10-16T05:06:36;20.20;61.40
50955;DHT22;36966;48.064;-0.792;2022-10-16T05:08:57;20.20;61.40
50955;DHT22;36966;48.064;-0.792;2022-10-16T05:11:16;20.20;61.40
50955;DHT22;36966;48.064;-0.792;2022-10-16T05:13:35;20.20;61.40
50955;DHT22;36966;48.064;-0.792;2022-10-16T05:15:55;20.20;61.40
50955;DHT22;36966;48.064;-0.792;2022-10-16T05:18:14;20.20;61.40
50955;DHT22;36966;48.064;-0.792;2022-10-16T05:20:34;20.20;61.40
50955;DHT22;36966;48.064;-0.792;2022-10-16T05:22:53;20.20;61.40
50955;DHT22;36966;48.064;-0.792;2022-10-16T05:25:12;20.20;61.40
50955;DHT22;36966;48.064;-0.792;2022-10-16T05:27:32;20.20;61.40
50955;DHT22;36966;48.064;-0.792;2022-10-16T05:29:51;20.30;61.40
50955;DHT22;36966;48.064;-0.792;2022-10-16T05:32:10;20.20;61.40
50955;DHT22;36966;48.064;-0.792;2022-10-16T05:34:29;20.30;61.50
50955;DHT22;36966;48.064;-0.792;2022-10-16T05:36:49;20.30;61.40
50955;DHT22;36966;48.064;-0.792;2022-10-16T05:39:09;20.20;61.50
50955;DHT22;36966;48.064;-0.792;2022-10-16T05:41:28;20.20;61.50
50955;DHT22;36966;48.064;-0.792;2022-10-16T05:43:48;20.20;61.40
50955;DHT22;36966;48.064;-0.792;2022-10-16T05:46:08;20.30;61.40
50955;DHT22;36966;48.064;-0.792;2022-10-16T05:48:27;20.20;61.50
50955;DHT22;36966;48.064;-0.792;2022-10-16T05:50:47;20.20;61.40
50955;DHT22;36966;48.064;-0.792;2022-10-16T05:53:06;20.20;61.40
50955;DHT22;36966;48.064;-0.792;2022-10-16T05:55:25;20.30;61.50
50955;DHT22;36966;48.064;-0.792;2022-10-16T05:57:44;20.20;61.40
50955;DHT22;36966;48.064;-0.792;2022-10-16T06:00:05;20.20;61.40
50955;DHT22;36966;48.064;-0.792;2022-10-16T06:02:24;20.30;61.40
50955;DHT22;36966;48.064;-0.792;2022-10-16T06:04:44;20.30;61.50
50955;DHT22;36966;48.064;-0.792;2022-10-16T06:07:03;20.20;61.50
50955;DHT22;36966;48.064;-0.792;2022-10-16T06:09:22;20.30;61.40
50955;DHT22;36966;48.064;-0.792;2022-10-16T06:11:41;20.30;61.50
50955;DHT22;36966;48.064;-0.792;2022-10-16T06:14:01;20.30;61.50
50955;DHT22;36966;48.064;-0.792;2022-10-16T06:16:26;20.30;61.50
50955;DHT22;36966;48.064;-0.792;2022-10-16T06:18:45;20.30;61.50
50955;DHT22;36966;48.064;-0.792;2022-10-16T06:21:14;20.20;61.50
50955;DHT22;36966;48.064;-0.792;2022-10-16T06:23:35;20.20;61.50
50955;DHT22;36966;48.064;-0.792;2022-10-16T06:26:04;20.30;61.50
50955;DHT22;36966;48.064;-0.792;2022-10-16T06:28:24;20.30;61.50
50955;DHT22;36966;48.064;-0.792;2022-10-16T06:30:43;20.20;61.60
50955;DHT22;36966;48.064;-0.792;2022-10-16T06:33:02;20.20;61.60
50955;DHT22;36966;48.064;-0.792;2022-10-16T06:35:21;20.30;61.60
50955;DHT22;36966;48.064;-0.792;2022-10-16T06:37:41;20.30;61.60
50955;DHT22;36966;48.064;-0.792;2022-10-16T06:40:00;20.30;61.60
50955;DHT22;36966;48.064;-0.792;2022-10-16T06:42:19;20.30;61.60
50955;DHT22;36966;48.064;-0.792;2022-10-16T06:44:38;20.30;61.60
50955;DHT22;36966;48.064;-0.792;2022-10-16T06:46:58;20.30;61.70
50955;DHT22;36966;48.064;-0.792;2022-10-16T06:49:17;20.20;61.60
50955;DHT22;36966;48.064;-0.792;2022-10-16T06:51:41;20.30;61.70
50955;DHT22;36966;48.064;-0.792;2022-10-16T06:54:01;20.20;61.70
50955;DHT22;36966;48.064;-0.792;2022-10-16T06:56:25;20.30;61.70
50955;DHT22;36966;48.064;-0.792;2022-10-16T06:58:46;20.30;61.70
50955;DHT22;36966;48.064;-0.792;2022-10-16T07:01:06;20.30;61.70
50955;DHT22;36966;48.064;-0.792;2022-10-16T07:03:26;20.30;61.70
50955;DHT22;36966;48.064;-0.792;2022-10-16T07:05:45;20.30;61.60
50955;DHT22;36966;48.064;-0.792;2022-10-16T07:08:05;20.30;61.70
50955;DHT22;36966;48.064;-0.792;2022-10-16T07:10:24;20.30;61.70
50955;DHT22;36966;48.064;-0.792;2022-10-16T07:12:44;20.30;61.70
50955;DHT22;36966;48.064;-0.792;2022-10-16T07:15:04;20.30;61.70
50955;DHT22;36966;48.064;-0.792;2022-10-16T07:17:24;20.30;61.70
50955;DHT22;36966;48.064;-0.792;2022-10-16T07:19:43;20.30;61.70
50955;DHT22;36966;48.064;-0.792;2022-10-16T07:22:02;20.30;61.70
50955;DHT22;36966;48.064;-0.792;2022-10-16T07:24:22;20.30;61.70
50955;DHT22;36966;48.064;-0.792;2022-10-16T07:26:43;20.30;61.70
50955;DHT22;36966;48.064;-0.792;2022-10-16T07:29:03;20.20;61.70
50955;DHT22;36966;48.064;-0.792;2022-10-16T07:31:23;20.30;61.70
50955;DHT22;36966;48.064;-0.792;2022-10-16T07:33:43;20.30;61.70
50955;DHT22;36966;48.064;-0.792;2022-10-16T07:36:04;20.30;61.70
50955;DHT22;36966;48.064;-0.792;2022-10-16T07:38:24;20.30;61.70
50955;DHT22;36966;48.064;-0.792;2022-10-16T07:40:44;20.30;61.70
50955;DHT22;36966;48.064;-0.792;2022-10-16T07:43:04;20.30;61.60
50955;DHT22;36966;48.064;-0.792;2022-10-16T07:45:24;20.30;61.40
50955;DHT22;36966;48.064;-0.792;2022-10-16T07:47:43;20.40;61.30
50955;DHT22;36966;48.064;-0.792;2022-10-16T07:50:03;20.40;61.30
50955;DHT22;36966;48.064;-0.792;2022-10-16T07:52:22;20.40;61.20
50955;DHT22;36966;48.064;-0.792;2022-10-16T07:54:41;20.40;61.20
50955;DHT22;36966;48.064;-0.792;2022-10-16T07:57:01;20.40;61.30
50955;DHT22;36966;48.064;-0.792;2022-10-16T07:59:20;20.30;61.20
50955;DHT22;36966;48.064;-0.792;2022-10-16T08:01:40;20.40;61.20
50955;DHT22;36966;48.064;-0.792;2022-10-16T08:04:01;20.40;61.30
50955;DHT22;36966;48.064;-0.792;2022-10-16T08:06:22;20.40;61.30
50955;DHT22;36966;48.064;-0.792;2022-10-16T08:08:41;20.40;61.30
50955;DHT22;36966;48.064;-0.792;2022-10-16T08:11:01;20.40;61.30
50955;DHT22;36966;48.064;-0.792;2022-10-16T08:13:22;20.40;61.30
50955;DHT22;36966;48.064;-0.792;2022-10-16T08:15:42;20.40;61.30
50955;DHT22;36966;48.064;-0.792;2022-10-16T08:18:04;20.40;61.40
50955;DHT22;36966;48.064;-0.792;2022-10-16T08:20:24;20.40;61.40
50955;DHT22;36966;48.064;-0.792;2022-10-16T08:22:44;20.40;61.40
50955;DHT22;36966;48.064;-0.792;2022-10-16T08:25:03;20.40;61.40
50955;DHT22;36966;48.064;-0.792;2022-10-16T08:27:23;20.40;61.40
50955;DHT22;36966;48.064;-0.792;2022-10-16T08:29:42;20.40;61.40
50955;DHT22;36966;48.064;-0.792;2022-10-16T08:32:03;20.40;61.40
50955;DHT22;36966;48.064;-0.792;2022-10-16T08:34:23;20.40;61.40
50955;DHT22;36966;48.064;-0.792;2022-10-16T08:36:42;20.30;61.40
50955;DHT22;36966;48.064;-0.792;2022-10-16T08:39:02;20.40;61.40
50955;DHT22;36966;48.064;-0.792;2022-10-16T08:49:13;20.40;61.40
50955;DHT22;36966;48.064;-0.792;2022-10-16T08:51:35;20.40;61.50
50955;DHT22;36966;48.064;-0.792;2022-10-16T08:53:57;20.40;61.40
50955;DHT22;36966;48.064;-0.792;2022-10-16T08:56:17;20.40;61.50
50955;DHT22;36966;48.064;-0.792;2022-10-16T08:58:37;20.40;61.50
50955;DHT22;36966;48.064;-0.792;2022-10-16T09:01:00;20.40;61.50
50955;DHT22;36966;48.064;-0.792;2022-10-16T09:03:23;20.40;61.50
50955;DHT22;36966;48.064;-0.792;2022-10-16T09:06:10;20.40;61.50
50955;DHT22;36966;48.064;-0.792;2022-10-16T09:16:47;20.40;61.50
50955;DHT22;36966;48.064;-0.792;2022-10-16T09:19:34;20.40;61.50
50955;DHT22;36966;48.064;-0.792;2022-10-16T09:21:59;20.40;61.50
50955;DHT22;36966;48.064;-0.792;2022-10-16T09:24:24;20.50;61.40
50955;DHT22;36966;48.064;-0.792;2022-10-16T09:26:44;20.50;61.40
50955;DHT22;36966;48.064;-0.792;2022-10-16T09:29:04;20.50;61.30
50955;DHT22;36966;48.064;-0.792;2022-10-16T09:31:23;20.50;61.40
50955;DHT22;36966;48.064;-0.792;2022-10-16T09:33:42;20.60;61.70
50955;DHT22;36966;48.064;-0.792;2022-10-16T09:36:03;20.60;61.80
50955;DHT22;36966;48.064;-0.792;2022-10-16T09:38:29;20.60;61.60
50955;DHT22;36966;48.064;-0.792;2022-10-16T09:40:49;20.60;61.60
50955;DHT22;36966;48.064;-0.792;2022-10-16T09:45:36;20.70;61.90
50955;DHT22;36966;48.064;-0.792;2022-10-16T09:47:56;20.70;62.00
50955;DHT22;36966;48.064;-0.792;2022-10-16T09:50:26;20.70;62.20
50955;DHT22;36966;48.064;-0.792;2022-10-16T09:52:45;20.70;61.90
50955;DHT22;36966;48.064;-0.792;2022-10-16T09:55:16;20.70;62.30
50955;DHT22;36966;48.064;-0.792;2022-10-16T09:57:37;20.70;61.90
50955;DHT22;36966;48.064;-0.792;2022-10-16T09:59:58;20.80;62.10
50955;DHT22;36966;48.064;-0.792;2022-10-16T10:02:21;20.90;62.00
50955;DHT22;36966;48.064;-0.792;2022-10-16T10:04:52;21.00;62.10
50955;DHT22;36966;48.064;-0.792;2022-10-16T10:07:28;21.00;61.80
50955;DHT22;36966;48.064;-0.792;2022-10-16T10:09:52;21.00;61.70
50955;DHT22;36966;48.064;-0.792;2022-10-16T10:12:19;21.10;61.70
50955;DHT22;36966;48.064;-0.792;2022-10-16T10:14:50;21.10;61.70
50955;DHT22;36966;48.064;-0.792;2022-10-16T10:22:45;21.00;61.70
50955;DHT22;36966;48.064;-0.792;2022-10-16T10:27:40;21.00;61.50
50955;DHT22;36966;48.064;-0.792;2022-10-16T10:30:17;21.00;61.70
50955;DHT22;36966;48.064;-0.792;2022-10-16T10:32:52;21.00;61.60
50955;DHT22;36966;48.064;-0.792;2022-10-16T10:41:04;21.00;61.70
50955;DHT22;36966;48.064;-0.792;2022-10-16T10:51:53;20.90;62.10
50955;DHT22;36966;48.064;-0.792;2022-10-16T10:54:28;21.00;62.10
50955;DHT22;36966;48.064;-0.792;2022-10-16T10:56:57;20.90;62.00
50955;DHT22;36966;48.064;-0.792;2022-10-16T11:06:01;20.90;61.80
50955;DHT22;36966;48.064;-0.792;2022-10-16T11:15:37;20.80;61.70
50955;DHT22;36966;48.064;-0.792;2022-10-16T11:18:20;20.80;61.80
50955;DHT22;36966;48.064;-0.792;2022-10-16T11:20:45;20.80;61.70
50955;DHT22;36966;48.064;-0.792;2022-10-16T11:25:45;20.80;61.70
50955;DHT22;36966;48.064;-0.792;2022-10-16T11:28:23;20.80;61.80
50955;DHT22;36966;48.064;-0.792;2022-10-16T11:33:51;20.80;61.80
50955;DHT22;36966;48.064;-0.792;2022-10-16T11:36:28;20.80;61.90
50955;DHT22;36966;48.064;-0.792;2022-10-16T11:39:08;20.80;61.90
50955;DHT22;36966;48.064;-0.792;2022-10-16T11:44:10;20.80;61.80
50955;DHT22;36966;48.064;-0.792;2022-10-16T11:46:34;20.80;61.80
50955;DHT22;36966;48.064;-0.792;2022-10-16T11:49:03;20.80;61.80
50955;DHT22;36966;48.064;-0.792;2022-10-16T11:54:28;20.80;61.70
50955;DHT22;36966;48.064;-0.792;2022-10-16T11:56:55;20.80;61.80
50955;DHT22;36966;48.064;-0.792;2022-10-16T12:04:48;20.80;61.80
50955;DHT22;36966;48.064;-0.792;2022-10-16T12:07:13;20.80;62.00
50955;DHT22;36966;48.064;-0.792;2022-10-16T12:09:39;20.80;62.00
50955;DHT22;36966;48.064;-0.792;2022-10-16T12:12:00;20.80;62.00
50955;DHT22;36966;48.064;-0.792;2022-10-16T12:14:22;20.80;61.90
50955;DHT22;36966;48.064;-0.792;2022-10-16T12:17:22;20.80;62.00
50955;DHT22;36966;48.064;-0.792;2022-10-16T12:19:42;20.90;62.10
50955;DHT22;36966;48.064;-0.792;2022-10-16T12:22:02;20.80;62.00
50955;DHT22;36966;48.064;-0.792;2022-10-16T12:24:41;20.90;62.10
50955;DHT22;36966;48.064;-0.792;2022-10-16T12:27:01;20.80;62.20
50955;DHT22;36966;48.064;-0.792;2022-10-16T12:31:50;20.90;62.10
50955;DHT22;36966;48.064;-0.792;2022-10-16T12:34:39;20.90;62.50
50955;DHT22;36966;48.064;-0.792;2022-10-16T12:39:42;21.00;63.00
50955;DHT22;36966;48.064;-0.792;2022-10-16T12:42:04;21.10;62.90
50955;DHT22;36966;48.064;-0.792;2022-10-16T12:44:23;21.10;62.90
50955;DHT22;36966;48.064;-0.792;2022-10-16T12:46:45;21.20;62.90
50955;DHT22;36966;48.064;-0.792;2022-10-16T12:53:59;21.30;62.60
50955;DHT22;36966;48.064;-0.792;2022-10-16T13:22:50;21.70;61.90
50955;DHT22;36966;48.064;-0.792;2022-10-16T13:27:59;21.70;62.20
50955;DHT22;36966;48.064;-0.792;2022-10-16T13:30:23;21.70;62.20
50955;DHT22;36966;48.064;-0.792;2022-10-16T13:32:49;21.70;62.50
50955;DHT22;36966;48.064;-0.792;2022-10-16T13:35:24;21.70;62.30
50955;DHT22;36966;48.064;-0.792;2022-10-16T13:37:44;21.70;62.50
50955;DHT22;36966;48.064;-0.792;2022-10-16T13:42:38;21.70;62.60
50955;DHT22;36966;48.064;-0.792;2022-10-16T13:44:57;21.70;62.60
50955;DHT22;36966;48.064;-0.792;2022-10-16T13:47:20;21.70;62.70
50955;DHT22;36966;48.064;-0.792;2022-10-16T13:49:40;21.70;62.80
50955;DHT22;36966;48.064;-0.792;2022-10-16T13:51:59;21.70;62.80
50955;DHT22;36966;48.064;-0.792;2022-10-16T13:54:19;21.60;63.10
50955;DHT22;36966;48.064;-0.792;2022-10-16T13:56:39;21.60;63.10
50955;DHT22;36966;48.064;-0.792;2022-10-16T13:59:01;21.70;63.10
50955;DHT22;36966;48.064;-0.792;2022-10-16T14:01:25;21.60;63.10
50955;DHT22;36966;48.064;-0.792;2022-10-16T14:03:45;21.60;63.10
50955;DHT22;36966;48.064;-0.792;2022-10-16T14:06:10;21.70;63.10
50955;DHT22;36966;48.064;-0.792;2022-10-16T14:08:31;21.70;62.90
50955;DHT22;36966;48.064;-0.792;2022-10-16T14:10:53;21.70;63.10
50955;DHT22;36966;48.064;-0.792;2022-10-16T14:13:19;21.60;63.30
50955;DHT22;36966;48.064;-0.792;2022-10-16T14:15:39;21.70;63.50
50955;DHT22;36966;48.064;-0.792;2022-10-16T14:17:58;21.60;63.60
50955;DHT22;36966;48.064;-0.792;2022-10-16T14:20:18;21.60;63.50
50955;DHT22;36966;48.064;-0.792;2022-10-16T14:22:39;21.70;63.50
50955;DHT22;36966;48.064;-0.792;2022-10-16T14:25:00;21.70;63.40
50955;DHT22;36966;48.064;-0.792;2022-10-16T14:27:34;21.70;63.40
50955;DHT22;36966;48.064;-0.792;2022-10-16T14:30:13;21.70;63.50
50955;DHT22;36966;48.064;-0.792;2022-10-16T14:32:34;21.70;63.60
50955;DHT22;36966;48.064;-0.792;2022-10-16T14:34:54;21.70;63.50
50955;DHT22;36966;48.064;-0.792;2022-10-16T14:39:39;21.60;63.70
50955;DHT22;36966;48.064;-0.792;2022-10-16T14:41:59;21.60;63.70
50955;DHT22;36966;48.064;-0.792;2022-10-16T14:44:20;21.60;63.70
50955;DHT22;36966;48.064;-0.792;2022-10-16T14:46:42;21.60;63.70
50955;DHT22;36966;48.064;-0.792;2022-10-16T14:49:22;21.60;63.70
50955;DHT22;36966;48.064;-0.792;2022-10-16T14:51:42;21.60;63.70
50955;DHT22;36966;48.064;-0.792;2022-10-16T14:54:04;21.60;63.70
50955;DHT22;36966;48.064;-0.792;2022-10-16T14:56:25;21.60;63.90
50955;DHT22;36966;48.064;-0.792;2022-10-16T14:58:48;21.60;63.90
50955;DHT22;36966;48.064;-0.792;2022-10-16T15:01:10;21.60;63.90
50955;DHT22;36966;48.064;-0.792;2022-10-16T15:03:30;21.50;63.90
50955;DHT22;36966;48.064;-0.792;2022-10-16T15:05:49;21.50;64.10
50955;DHT22;36966;48.064;-0.792;2022-10-16T15:08:08;21.50;64.10
50955;DHT22;36966;48.064;-0.792;2022-10-16T15:10:29;21.50;64.20
50955;DHT22;36966;48.064;-0.792;2022-10-16T15:12:49;21.50;64.20
50955;DHT22;36966;48.064;-0.792;2022-10-16T15:17:54;21.60;64.40
50955;DHT22;36966;48.064;-0.792;2022-10-16T15:20:20;21.60;65.00
50955;DHT22;36966;48.064;-0.792;2022-10-16T15:22:39;21.60;64.80
50955;DHT22;36966;48.064;-0.792;2022-10-16T15:24:58;21.70;64.90
50955;DHT22;36966;48.064;-0.792;2022-10-16T15:27:17;21.70;64.80
50955;DHT22;36966;48.064;-0.792;2022-10-16T15:29:36;21.70;64.90
50955;DHT22;36966;48.064;-0.792;2022-10-16T15:31:56;21.70;65.00
50955;DHT22;36966;48.064;-0.792;2022-10-16T15:34:16;21.70;65.20
50955;DHT22;36966;48.064;-0.792;2022-10-16T15:36:38;21.70;65.40
50955;DHT22;36966;48.064;-0.792;2022-10-16T15:38:58;21.70;65.60
50955;DHT22;36966;48.064;-0.792;2022-10-16T15:41:17;21.70;65.20
50955;DHT22;36966;48.064;-0.792;2022-10-16T15:43:36;21.70;65.60
50955;DHT22;36966;48.064;-0.792;2022-10-16T15:48:20;21.70;65.40
50955;DHT22;36966;48.064;-0.792;2022-10-16T15:50:40;21.70;65.60
50955;DHT22;36966;48.064;-0.792;2022-10-16T15:52:59;21.70;65.50
50955;DHT22;36966;48.064;-0.792;2022-10-16T15:55:18;21.60;65.50
50955;DHT22;36966;48.064;-0.792;2022-10-16T15:57:37;21.70;65.70
50955;DHT22;36966;48.064;-0.792;2022-10-16T15:59:57;21.60;65.90
50955;DHT22;36966;48.064;-0.792;2022-10-16T16:02:16;21.60;65.70
50955;DHT22;36966;48.064;-0.792;2022-10-16T16:04:35;21.60;65.80
50955;DHT22;36966;48.064;-0.792;2022-10-16T16:06:54;21.50;65.80
50955;DHT22;36966;48.064;-0.792;2022-10-16T16:09:14;21.60;65.70
50955;DHT22;36966;48.064;-0.792;2022-10-16T16:11:33;21.60;65.70
50955;DHT22;36966;48.064;-0.792;2022-10-16T16:13:56;21.60;65.70
50955;DHT22;36966;48.064;-0.792;2022-10-16T16:16:16;21.60;65.80
50955;DHT22;36966;48.064;-0.792;2022-10-16T16:18:37;21.60;66.00
50955;DHT22;36966;48.064;-0.792;2022-10-16T16:20:56;21.60;66.20
50955;DHT22;36966;48.064;-0.792;2022-10-16T16:23:16;21.60;66.10
50955;DHT22;36966;48.064;-0.792;2022-10-16T16:25:35;21.60;66.20
50955;DHT22;36966;48.064;-0.792;2022-10-16T16:27:55;21.60;66.30
50955;DHT22;36966;48.064;-0.792;2022-10-16T16:30:14;21.60;66.50
50955;DHT22;36966;48.064;-0.792;2022-10-16T16:32:34;21.60;66.40
50955;DHT22;36966;48.064;-0.792;2022-10-16T16:34:54;21.60;66.50
50955;DHT22;36966;48.064;-0.792;2022-10-16T16:37:13;21.60;66.70
50955;DHT22;36966;48.064;-0.792;2022-10-16T16:39:32;21.50;66.80
50955;DHT22;36966;48.064;-0.792;2022-10-16T16:41:51;21.50;67.00
50955;DHT22;36966;48.064;-0.792;2022-10-16T16:44:12;21.50;67.20
50955;DHT22;36966;48.064;-0.792;2022-10-16T16:46:33;21.40;67.10
50955;DHT22;36966;48.064;-0.792;2022-10-16T16:48:52;21.50;67.20
50955;DHT22;36966;48.064;-0.792;2022-10-16T16:51:17;21.40;67.20